sensor_id;sensor_type;location;lat;lon;timestamp;pressure;altitude;pressure_sealevel;temperature;humidity
26719;BME280;14326;50.794;6.060;2022-12-04T00:01:50;99631.28;;;2.03;100.00
26719;BME280;14326;50.794;6.060;2022-12-04T00:04:23;99633.91;;;2.03;100.00
26719;BME280;14326;50.794;6.060;2022-12-04T00:06:58;99633.91;;;2.03;100.00
26719;BME280;14326;50.794;6.060;2022-12-04T00:09:29;99633.72;;;1.98;100.00
26719;BME280;14326;50.794;6.060;2022-12-04T00:12:02;99624.19;;;2.00;100.00
26719;BME280;14326;50.794;6.060;2022-12-04T00:14:31;99630.31;;;2.01;100.00
26719;BME280;14326;50.794;6.060;2022-12-04T00:17:02;99620.94;;;2.06;100.00
26719;BME280;14326;50.794;6.060;2022-12-04T00:19:32;99616.13;;;1.96;100.00
26719;BME280;14326;50.794;6.060;2022-12-04T00:22:09;99614.47;;;1.98;100.00
26719;BME280;14326;50.794;6.060;2022-12-04T00:24:46;99610.88;;;1.96;100.00
26719;BME280;14326;50.794;6.060;2022-12-04T00:27:18;99613.69;;;2.00;100.00
26719;BME280;14326;50.794;6.060;2022-12-04T00:29:44;99606.69;;;1.99;100.00
26719;BME280;14326;50.794;6.060;2022-12-04T00:32:11;99625.94;;;2.00;100.00
26719;BME280;14326;50.794;6.060;2022-12-04T00:34:37;99608.44;;;2.00;100.00
26719;BME280;14326;50.794;6.060;2022-12-04T00:37:04;99612.81;;;2.00;100.00
26719;BME280;14326;50.794;6.060;2022-12-04T00:39:31;99608.59;;;2.03;100.00
26719;BME280;14326;50.794;6.060;2022-12-04T00:41:58;99605.13;;;2.04;100.00
26719;BME280;14326;50.794;6.060;2022-12-04T00:44:25;99603.34;;;2.03;100.00
26719;BME280;14326;50.794;6.060;2022-12-04T00:46:54;99600.00;;;2.08;100.00
26719;BME280;14326;50.794;6.060;2022-12-04T00:49:22;99604.16;;;2.02;100.00
26719;BME280;14326;50.794;6.060;2022-12-04T00:51:58;99604.25;;;2.04;100.00
26719;BME280;14326;50.794;6.060;2022-12-04T00:54:27;99599.00;;;2.04;100.00
26719;BME280;14326;50.794;6.060;2022-12-04T00:57:06;99599.00;;;2.04;100.00
26719;BME280;14326;50.794;6.060;2022-12-04T00:59:33;99604.34;;;2.07;100.00
26719;BME280;14326;50.794;6.060;2022-12-04T01:02:13;99606.06;;;2.06;100.00
26719;BME280;14326;50.794;6.060;2022-12-04T01:04:39;99600.66;;;2.02;100.00
26719;BME280;14326;50.794;6.060;2022-12-04T01:07:06;99596.22;;;2.01;100.00
26719;BME280;14326;50.794;6.060;2022-12-04T01:09:37;99591.63;;;1.95;100.00
26719;BME280;14326;50.794;6.060;2022-12-04T01:12:13;99590.72;;;1.95;100.00
26719;BME280;14326;50.794;6.060;2022-12-04T01:14:49;99598.59;;;1.95;100.00
26719;BME280;14326;50.794;6.060;2022-12-04T01:17:26;99590.72;;;1.95;100.00
26719;BME280;14326;50.794;6.060;2022-12-04T01:20:00;99599.44;;;1.94;100.00
26719;BME280;14326;50.794;6.060;2022-12-04T01:22:38;99601.16;;;1.93;100.00
26719;BME280;14326;50.794;6.060;2022-12-04T01:25:11;99598.59;;;1.95;100.00
26719;BME280;14326;50.794;6.060;2022-12-04T01:27:41;99607.31;;;1.94;100.00
26719;BME280;14326;50.794;6.060;2022-12-04T01:30:15;99605.31;;;1.88;100.00
26719;BME280;14326;50.794;6.060;2022-12-04T01:32:55;99597.66;;;1.93;100.00
26719;BME280;14326;50.794;6.060;2022-12-04T01:35:22;99599.38;;;1.92;100.00
26719;BME280;14326;50.794;6.060;2022-12-04T01:37:59;99598.31;;;1.89;100.00
26719;BME280;14326;50.794;6.060;2022-12-04T01:40:26;99594.88;;;1.90;100.00
26719;BME280;14326;50.794;6.060;2022-12-04T01:42:53;99597.47;;;1.88;100.00
26719;BME280;14326;50.794;6.060;2022-12-04T01:45:44;99598.31;;;1.89;100.00
26719;BME280;14326;50.794;6.060;2022-12-04T01:48:17;99596.75;;;1.92;100.00
26719;BME280;14326;50.794;6.060;2022-12-04T01:51:05;99594.88;;;1.90;100.00
26719;BME280;14326;50.794;6.060;2022-12-04T01:53:40;99589.78;;;1.93;100.00
26719;BME280;14326;50.794;6.060;2022-12-04T01:56:11;99588.88;;;1.92;100.00
26719;BME280;14326;50.794;6.060;2022-12-04T01:58:50;99587.16;;;1.93;100.00
26719;BME280;14326;50.794;6.060;2022-12-04T02:01:22;99587.91;;;1.90;100.00
26719;BME280;14326;50.794;6.060;2022-12-04T02:03:52;99585.34;;;1.92;100.00
26719;BME280;14326;50.794;6.060;2022-12-04T02:06:26;99585.44;;;1.93;100.00
26719;BME280;14326;50.794;6.060;2022-12-04T02:09:00;99580.94;;;1.91;100.00
26719;BME280;14326;50.794;6.060;2022-12-04T02:11:35;99582.84;;;1.95;100.00
26719;BME280;14326;50.794;6.060;2022-12-04T02:14:20;99573.97;;;1.91;100.00
26719;BME280;14326;50.794;6.060;2022-12-04T02:17:02;99585.44;;;1.93;100.00
26719;BME280;14326;50.794;6.060;2022-12-04T02:20:05;99582.75;;;1.92;100.00
26719;BME280;14326;50.794;6.060;2022-12-04T02:25:42;99589.78;;;1.93;100.00
26719;BME280;14326;50.794;6.060;2022-12-04T02:28:16;99588.94;;;1.94;100.00
26719;BME280;14326;50.794;6.060;2022-12-04T02:30:54;99591.44;;;1.91;100.00
26719;BME280;14326;50.794;6.060;2022-12-04T02:33:24;99587.00;;;1.90;100.00
26719;BME280;14326;50.794;6.060;2022-12-04T02:36:02;99591.44;;;1.91;100.00
26719;BME280;14326;50.794;6.060;2022-12-04T02:38:34;99584.19;;;1.85;100.00
26719;BME280;14326;50.794;6.060;2022-12-04T02:41:07;99587.56;;;1.83;100.00
26719;BME280;14326;50.794;6.060;2022-12-04T02:43:43;99585.81;;;1.82;100.00
26719;BME280;14326;50.794;6.060;2022-12-04T02:46:23;99590.16;;;1.81;100.00
26719;BME280;14326;50.794;6.060;2022-12-04T02:48:58;99589.31;;;1.82;100.00
26719;BME280;14326;50.794;6.060;2022-12-04T02:51:30;99588.47;;;1.83;100.00
26719;BME280;14326;50.794;6.060;2022-12-04T02:54:08;99586.91;;;1.87;100.00
26719;BME280;14326;50.794;6.060;2022-12-04T02:56:42;99585.22;;;1.89;100.00
26719;BME280;14326;50.794;6.060;2022-12-04T02:59:23;99596.47;;;1.86;100.00
26719;BME280;14326;50.794;6.060;2022-12-04T03:02:00;99589.63;;;1.90;100.00
26719;BME280;14326;50.794;6.060;2022-12-04T03:04:28;99592.31;;;1.91;100.00
26719;BME280;14326;50.794;6.060;2022-12-04T03:07:13;99585.91;;;1.85;100.00
26719;BME280;14326;50.794;6.060;2022-12-04T03:09:43;99590.19;;;1.83;100.00
26719;BME280;14326;50.794;6.060;2022-12-04T03:12:20;99593.72;;;1.83;100.00
26719;BME280;14326;50.794;6.060;2022-12-04T03:14:59;99590.19;;;1.83;100.00
26719;BME280;14326;50.794;6.060;2022-12-04T03:17:41;99590.28;;;1.84;100.00
26719;BME280;14326;50.794;6.060;2022-12-04T03:20:17;99597.38;;;1.87;100.00
26719;BME280;14326;50.794;6.060;2022-12-04T03:22:57;99588.63;;;1.86;100.00
26719;BME280;14326;50.794;6.060;2022-12-04T03:25:33;99597.38;;;1.87;100.00
26719;BME280;14326;50.794;6.060;2022-12-04T03:28:11;99595.50;;;1.84;100.00
26719;BME280;14326;50.794;6.060;2022-12-04T03:30:48;99593.72;;;1.83;100.00
26719;BME280;14326;50.794;6.060;2022-12-04T03:33:19;99596.28;;;1.82;99.96
26719;BME280;14326;50.794;6.060;2022-12-04T03:35:58;99597.03;;;1.79;100.00
26719;BME280;14326;50.794;6.060;2022-12-04T03:38:35;99590.91;;;1.79;99.16
26719;BME280;14326;50.794;6.060;2022-12-04T03:41:05;99591.69;;;1.76;99.50
26719;BME280;14326;50.794;6.060;2022-12-04T03:43:39;99595.22;;;1.77;100.00
26719;BME280;14326;50.794;6.060;2022-12-04T03:46:13;99597.81;;;1.77;99.35
26719;BME280;14326;50.794;6.060;2022-12-04T03:48:45;99598.66;;;1.76;98.59
26719;BME280;14326;50.794;6.060;2022-12-04T03:51:16;99590.00;;;1.78;98.06
26719;BME280;14326;50.794;6.060;2022-12-04T03:53:44;99588.09;;;1.74;98.42
26719;BME280;14326;50.794;6.060;2022-12-04T03:56:17;99594.22;;;1.75;98.09
26719;BME280;14326;50.794;6.060;2022-12-04T03:58:47;99592.44;;;1.74;98.20
26719;BME280;14326;50.794;6.060;2022-12-04T04:01:19;99587.34;;;1.77;98.59
26719;BME280;14326;50.794;6.060;2022-12-04T04:03:50;99595.25;;;1.78;98.46
26719;BME280;14326;50.794;6.060;2022-12-04T04:06:20;99594.34;;;1.78;98.26
26719;BME280;14326;50.794;6.060;2022-12-04T04:08:51;99600.19;;;1.71;98.01
26719;BME280;14326;50.794;6.060;2022-12-04T04:11:22;99601.91;;;1.70;99.02
26719;BME280;14326;50.794;6.060;2022-12-04T04:13:52;99605.44;;;1.71;98.75
26719;BME280;14326;50.794;6.060;2022-12-04T04:16:43;99600.09;;;1.69;97.98
26719;BME280;14326;50.794;6.060;2022-12-04T04:19:33;99596.59;;;1.69;98.53
26719;BME280;14326;50.794;6.060;2022-12-04T04:22:18;99592.06;;;1.64;98.35
26719;BME280;14326;50.794;6.060;2022-12-04T04:25:05;99586.81;;;1.64;98.20
26719;BME280;14326;50.794;6.060;2022-12-04T04:27:33;99590.38;;;1.67;98.26
26719;BME280;14326;50.794;6.060;2022-12-04T04:29:59;99592.91;;;1.65;98.72
26719;BME280;14326;50.794;6.060;2022-12-04T04:32:32;99594.69;;;1.64;98.42
26719;BME280;14326;50.794;6.060;2022-12-04T04:35:08;99600.03;;;1.68;99.26
26719;BME280;14326;50.794;6.060;2022-12-04T04:37:39;99598.16;;;1.65;98.41
26719;BME280;14326;50.794;6.060;2022-12-04T04:40:13;99590.38;;;1.67;97.88
26719;BME280;14326;50.794;6.060;2022-12-04T04:42:48;99594.72;;;1.66;98.44
26719;BME280;14326;50.794;6.060;2022-12-04T04:45:20;99582.50;;;1.67;97.84
26719;BME280;14326;50.794;6.060;2022-12-04T04:47:51;99589.53;;;1.68;97.90
26719;BME280;14326;50.794;6.060;2022-12-04T04:50:20;99588.84;;;1.72;97.90
26719;BME280;14326;50.794;6.060;2022-12-04T04:52:50;99587.00;;;1.69;97.95
26719;BME280;14326;50.794;6.060;2022-12-04T04:55:20;99571.34;;;1.71;97.68
26719;BME280;14326;50.794;6.060;2022-12-04T04:57:47;99573.00;;;1.69;97.31
26719;BME280;14326;50.794;6.060;2022-12-04T05:00:16;99572.91;;;1.67;97.45
26719;BME280;14326;50.794;6.060;2022-12-04T05:02:43;99571.13;;;1.66;97.56
26719;BME280;14326;50.794;6.060;2022-12-04T05:05:12;99563.97;;;1.62;97.92
26719;BME280;14326;50.794;6.060;2022-12-04T05:07:39;99558.78;;;1.63;97.91
26719;BME280;14326;50.794;6.060;2022-12-04T05:10:07;99563.00;;;1.60;98.05
26719;BME280;14326;50.794;6.060;2022-12-04T05:12:34;99574.38;;;1.60;98.52
26719;BME280;14326;50.794;6.060;2022-12-04T05:15:00;99572.72;;;1.62;98.81
26719;BME280;14326;50.794;6.060;2022-12-04T05:17:27;99564.78;;;1.61;98.87
26719;BME280;14326;50.794;6.060;2022-12-04T05:19:53;99569.28;;;1.63;98.37
26719;BME280;14326;50.794;6.060;2022-12-04T05:22:23;99564.94;;;1.64;98.51
26719;BME280;14326;50.794;6.060;2022-12-04T05:24:50;99559.75;;;1.65;97.95
26719;BME280;14326;50.794;6.060;2022-12-04T05:27:17;99564.97;;;1.65;97.75
26719;BME280;14326;50.794;6.060;2022-12-04T05:29:43;99559.53;;;1.61;97.94
26719;BME280;14326;50.794;6.060;2022-12-04T05:32:10;99557.75;;;1.60;98.78
26719;BME280;14326;50.794;6.060;2022-12-04T05:34:36;99562.31;;;1.64;98.82
26719;BME280;14326;50.794;6.060;2022-12-04T05:37:03;99563.00;;;1.60;98.55
26719;BME280;14326;50.794;6.060;2022-12-04T05:39:32;99556.00;;;1.59;99.15
26719;BME280;14326;50.794;6.060;2022-12-04T05:41:59;99556.81;;;1.58;99.08
26719;BME280;14326;50.794;6.060;2022-12-04T05:44:26;99557.72;;;1.58;99.61
26719;BME280;14326;50.794;6.060;2022-12-04T05:46:52;99557.75;;;1.60;100.00
26719;BME280;14326;50.794;6.060;2022-12-04T05:49:19;99555.00;;;1.57;100.00
26719;BME280;14326;50.794;6.060;2022-12-04T05:51:45;99552.47;;;1.58;99.93
26719;BME280;14326;50.794;6.060;2022-12-04T05:54:12;99561.22;;;1.59;99.92
26719;BME280;14326;50.794;6.060;2022-12-04T05:56:40;99561.22;;;1.59;100.00
26719;BME280;14326;50.794;6.060;2022-12-04T05:59:07;99557.72;;;1.58;100.00
26719;BME280;14326;50.794;6.060;2022-12-04T06:01:33;99560.25;;;1.57;100.00
26719;BME280;14326;50.794;6.060;2022-12-04T06:04:00;99555.66;;;1.51;100.00
26719;BME280;14326;50.794;6.060;2022-12-04T06:06:29;99565.16;;;1.49;100.00
26719;BME280;14326;50.794;6.060;2022-12-04T06:08:58;99564.31;;;1.50;100.00
26719;BME280;14326;50.794;6.060;2022-12-04T06:11:26;99566.94;;;1.50;100.00
26719;BME280;14326;50.794;6.060;2022-12-04T06:13:56;99564.19;;;1.47;99.16
26719;BME280;14326;50.794;6.060;2022-12-04T06:16:25;99571.09;;;1.45;98.66
26719;BME280;14326;50.794;6.060;2022-12-04T06:18:53;99572.00;;;1.46;98.61
26719;BME280;14326;50.794;6.060;2022-12-04T06:21:21;99576.25;;;1.44;98.68
26719;BME280;14326;50.794;6.060;2022-12-04T06:23:56;99576.47;;;1.48;98.49
26719;BME280;14326;50.794;6.060;2022-12-04T06:26:35;99578.97;;;1.45;97.55
26719;BME280;14326;50.794;6.060;2022-12-04T06:29:05;99577.03;;;1.41;97.34
26719;BME280;14326;50.794;6.060;2022-12-04T06:31:32;99566.41;;;1.38;95.94
26719;BME280;14326;50.794;6.060;2022-12-04T06:34:00;99562.88;;;1.38;95.38
26719;BME280;14326;50.794;6.060;2022-12-04T06:36:27;99575.00;;;1.36;96.05
26719;BME280;14326;50.794;6.060;2022-12-04T06:38:55;99574.97;;;1.34;96.15
26719;BME280;14326;50.794;6.060;2022-12-04T06:41:22;99586.41;;;1.36;95.46
26719;BME280;14326;50.794;6.060;2022-12-04T06:43:49;99582.00;;;1.35;95.54
26719;BME280;14326;50.794;6.060;2022-12-04T06:46:18;99588.63;;;1.27;95.64
26719;BME280;14326;50.794;6.060;2022-12-04T06:48:45;99594.75;;;1.28;95.75
26719;BME280;14326;50.794;6.060;2022-12-04T06:51:19;99592.06;;;1.26;95.35
26719;BME280;14326;50.794;6.060;2022-12-04T06:53:48;99597.09;;;1.21;94.53
26719;BME280;14326;50.794;6.060;2022-12-04T06:56:26;99598.81;;;1.21;95.21
26719;BME280;14326;50.794;6.060;2022-12-04T06:58:56;99606.53;;;1.18;95.53
26719;BME280;14326;50.794;6.060;2022-12-04T07:01:32;99599.50;;;1.17;95.19
26719;BME280;14326;50.794;6.060;2022-12-04T07:04:05;99611.63;;;1.15;95.71
26719;BME280;14326;50.794;6.060;2022-12-04T07:06:34;99612.63;;;1.17;96.00
26719;BME280;14326;50.794;6.060;2022-12-04T07:09:06;99609.09;;;1.16;96.09
26719;BME280;14326;50.794;6.060;2022-12-04T07:11:44;99631.69;;;1.14;96.17
26719;BME280;14326;50.794;6.060;2022-12-04T07:14:21;99621.13;;;1.13;96.18
26719;BME280;14326;50.794;6.060;2022-12-04T07:16:54;99615.56;;;1.05;96.46
26719;BME280;14326;50.794;6.060;2022-12-04T07:19:27;99618.72;;;0.98;97.07
26719;BME280;14326;50.794;6.060;2022-12-04T07:21:54;99614.50;;;1.02;96.96
26719;BME280;14326;50.794;6.060;2022-12-04T07:24:20;99610.69;;;0.95;98.05
26719;BME280;14326;50.794;6.060;2022-12-04T07:26:47;99616.56;;;0.90;98.24
26719;BME280;14326;50.794;6.060;2022-12-04T07:29:13;99608.69;;;0.90;98.82
26719;BME280;14326;50.794;6.060;2022-12-04T07:31:40;99613.13;;;0.91;99.19
26719;BME280;14326;50.794;6.060;2022-12-04T07:34:09;99617.09;;;0.82;99.24
26719;BME280;14326;50.794;6.060;2022-12-04T07:36:38;99621.44;;;0.82;99.62
26719;BME280;14326;50.794;6.060;2022-12-04T07:39:05;99617.78;;;0.78;99.65
26719;BME280;14326;50.794;6.060;2022-12-04T07:41:31;99621.22;;;0.77;100.00
26719;BME280;14326;50.794;6.060;2022-12-04T07:43:58;99630.78;;;0.77;100.00
26719;BME280;14326;50.794;6.060;2022-12-04T07:46:26;99630.56;;;0.72;100.00
26719;BME280;14326;50.794;6.060;2022-12-04T07:48:53;99632.28;;;0.72;100.00
26719;BME280;14326;50.794;6.060;2022-12-04T07:51:23;99629.53;;;0.69;100.00
26719;BME280;14326;50.794;6.060;2022-12-04T07:53:51;99627.59;;;0.65;100.00
26719;BME280;14326;50.794;6.060;2022-12-04T07:56:18;99626.09;;;0.70;100.00
26719;BME280;14326;50.794;6.060;2022-12-04T07:58:46;99623.53;;;0.71;100.00
26719;BME280;14326;50.794;6.060;2022-12-04T08:01:14;99625.41;;;0.74;100.00
26719;BME280;14326;50.794;6.060;2022-12-04T08:03:42;99631.63;;;0.76;100.00
26719;BME280;14326;50.794;6.060;2022-12-04T08:06:09;99621.97;;;0.75;100.00
26719;BME280;14326;50.794;6.060;2022-12-04T08:08:37;99626.44;;;0.77;100.00
26719;BME280;14326;50.794;6.060;2022-12-04T08:11:05;99626.31;;;0.74;100.00
26719;BME280;14326;50.794;6.060;2022-12-04T08:13:32;99623.00;;;0.78;100.00
26719;BME280;14326;50.794;6.060;2022-12-04T08:16:00;99629.91;;;0.76;100.00
26719;BME280;14326;50.794;6.060;2022-12-04T08:18:30;99631.03;;;0.81;100.00
26719;BME280;14326;50.794;6.060;2022-12-04T08:21:03;99626.69;;;0.82;100.00
26719;BME280;14326;50.794;6.060;2022-12-04T08:23:30;99633.63;;;0.81;100.00
26719;BME280;14326;50.794;6.060;2022-12-04T08:25:58;99631.97;;;0.83;100.00
26719;BME280;14326;50.794;6.060;2022-12-04T08:28:25;99634.59;;;0.83;100.00
26719;BME280;14326;50.794;6.060;2022-12-04T08:30:52;99639.78;;;0.82;100.00
26719;BME280;14326;50.794;6.060;2022-12-04T08:33:19;99631.97;;;0.83;100.00
26719;BME280;14326;50.794;6.060;2022-12-04T08:35:46;99628.31;;;0.80;100.00
26719;BME280;14326;50.794;6.060;2022-12-04T08:38:12;99627.13;;;0.73;100.00
26719;BME280;14326;50.794;6.060;2022-12-04T08:40:39;99624.69;;;0.76;100.00
26719;BME280;14326;50.794;6.060;2022-12-04T08:43:07;99623.78;;;0.76;100.00
26719;BME280;14326;50.794;6.060;2022-12-04T08:45:34;99629.91;;;0.76;100.00
26719;BME280;14326;50.794;6.060;2022-12-04T08:48:00;99628.94;;;0.74;100.00
26719;BME280;14326;50.794;6.060;2022-12-04T08:50:27;99626.44;;;0.77;100.00
26719;BME280;14326;50.794;6.060;2022-12-04T08:52:53;99623.91;;;0.79;100.00
26719;BME280;14326;50.794;6.060;2022-12-04T08:55:20;99625.19;;;0.87;100.00
26719;BME280;14326;50.794;6.060;2022-12-04T08:57:47;99628.63;;;0.86;100.00
26719;BME280;14326;50.794;6.060;2022-12-04T09:00:17;99631.34;;;0.89;100.00
26719;BME280;14326;50.794;6.060;2022-12-04T09:02:49;99629.31;;;0.82;100.00
26719;BME280;14326;50.794;6.060;2022-12-04T09:05:17;99617.94;;;0.81;100.00
26719;BME280;14326;50.794;6.060;2022-12-04T09:07:44;99618.66;;;0.79;100.00
26719;BME280;14326;50.794;6.060;2022-12-04T09:10:11;99616.56;;;0.72;100.00
26719;BME280;14326;50.794;6.060;2022-12-04T09:12:38;99612.13;;;0.69;100.00
26719;BME280;14326;50.794;6.060;2022-12-04T09:15:06;99618.97;;;0.67;100.00
26719;BME280;14326;50.794;6.060;2022-12-04T09:17:34;99609.50;;;0.69;100.00
26719;BME280;14326;50.794;6.060;2022-12-04T09:20:02;99606.66;;;0.65;100.00
26719;BME280;14326;50.794;6.060;2022-12-04T09:22:28;99606.94;;;0.71;100.00
26719;BME280;14326;50.794;6.060;2022-12-04T09:24:58;99611.59;;;0.76;100.00
26719;BME280;14326;50.794;6.060;2022-12-04T09:27:25;99610.97;;;0.82;100.00
26719;BME280;14326;50.794;6.060;2022-12-04T09:29:54;99628.69;;;0.88;100.00
26719;BME280;14326;50.794;6.060;2022-12-04T09:32:21;99633.94;;;0.88;100.00
26719;BME280;14326;50.794;6.060;2022-12-04T09:34:49;99638.09;;;0.84;100.00
26719;BME280;14326;50.794;6.060;2022-12-04T09:37:15;99644.16;;;0.83;100.00
26719;BME280;14326;50.794;6.060;2022-12-04T09:39:42;99640.22;;;0.73;100.00
26719;BME280;14326;50.794;6.060;2022-12-04T09:42:21;99638.28;;;0.69;100.00
26719;BME280;14326;50.794;6.060;2022-12-04T09:44:52;99645.44;;;0.73;100.00
26719;BME280;14326;50.794;6.060;2022-12-04T09:47:25;99648.25;;;0.76;100.00
26719;BME280;14326;50.794;6.060;2022-12-04T09:49:57;99647.69;;;0.83;100.00
26719;BME280;14326;50.794;6.060;2022-12-04T09:52:38;99642.59;;;0.87;100.00
26719;BME280;14326;50.794;6.060;2022-12-04T09:55:13;99639.00;;;0.85;100.00
26719;BME280;14326;50.794;6.060;2022-12-04T09:57:45;99645.75;;;0.79;100.00
26719;BME280;14326;50.794;6.060;2022-12-04T10:00:17;99648.56;;;0.84;100.00
26719;BME280;14326;50.794;6.060;2022-12-04T10:02:49;99647.75;;;0.85;100.00
26719;BME280;14326;50.794;6.060;2022-12-04T10:05:36;99648.88;;;0.90;100.00
26719;BME280;14326;50.794;6.060;2022-12-04T10:08:14;99649.63;;;0.88;100.00
26719;BME280;14326;50.794;6.060;2022-12-04T10:11:07;99648.25;;;0.96;100.00
26719;BME280;14326;50.794;6.060;2022-12-04T10:13:56;99641.84;;;0.89;100.00
26719;BME280;14326;50.794;6.060;2022-12-04T10:16:34;99643.63;;;0.90;100.00
26719;BME280;14326;50.794;6.060;2022-12-04T10:19:09;99643.91;;;0.96;100.00
26719;BME280;14326;50.794;6.060;2022-12-04T10:21:53;99634.34;;;0.97;100.00
26719;BME280;14326;50.794;6.060;2022-12-04T10:24:37;99632.84;;;1.02;100.00
26719;BME280;14326;50.794;6.060;2022-12-04T10:27:14;99631.66;;;0.95;100.00
26719;BME280;14326;50.794;6.060;2022-12-04T10:29:51;99628.38;;;0.99;100.00
26719;BME280;14326;50.794;6.060;2022-12-04T10:32:23;99627.47;;;0.99;100.00
26719;BME280;14326;50.794;6.060;2022-12-04T10:35:07;99632.56;;;0.96;100.00
26719;BME280;14326;50.794;6.060;2022-12-04T10:37:54;99631.66;;;0.95;100.00
26719;BME280;14326;50.794;6.060;2022-12-04T10:43:28;99629.00;;;0.94;100.00
26719;BME280;14326;50.794;6.060;2022-12-04T10:46:03;99623.75;;;0.94;100.00
26719;BME280;14326;50.794;6.060;2022-12-04T10:48:37;99628.44;;;0.83;100.00
26719;BME280;14326;50.794;6.060;2022-12-04T10:51:15;99633.94;;;0.88;100.00
26719;BME280;14326;50.794;6.060;2022-12-04T10:53:44;99634.75;;;0.87;100.00
26719;BME280;14326;50.794;6.060;2022-12-04T10:56:21;99619.84;;;0.86;100.00
26719;BME280;14326;50.794;6.060;2022-12-04T10:59:14;99615.81;;;0.92;100.00
26719;BME280;14326;50.794;6.060;2022-12-04T11:01:44;99618.34;;;0.91;100.00
26719;BME280;14326;50.794;6.060;2022-12-04T11:04:29;99611.41;;;0.91;100.00
26719;BME280;14326;50.794;6.060;2022-12-04T11:07:01;99612.66;;;0.99;100.00
26719;BME280;14326;50.794;6.060;2022-12-04T11:09:32;99611.22;;;1.06;100.00
26719;BME280;14326;50.794;6.060;2022-12-04T11:12:07;99610.16;;;1.02;100.00
26719;BME280;14326;50.794;6.060;2022-12-04T11:14:58;99608.25;;;0.98;100.00
26719;BME280;14326;50.794;6.060;2022-12-04T11:17:30;99601.28;;;0.99;100.00
26719;BME280;14326;50.794;6.060;2022-12-04T11:20:05;99607.34;;;0.98;100.00
26719;BME280;14326;50.794;6.060;2022-12-04T11:22:48;99602.22;;;1.01;100.00
26719;BME280;14326;50.794;6.060;2022-12-04T11:25:29;99603.09;;;1.00;100.00
26719;BME280;14326;50.794;6.060;2022-12-04T11:28:04;99609.47;;;1.06;100.00
26719;BME280;14326;50.794;6.060;2022-12-04T11:30:34;99602.78;;;1.13;100.00
26719;BME280;14326;50.794;6.060;2022-12-04T11:33:22;99607.75;;;1.07;100.00
26719;BME280;14326;50.794;6.060;2022-12-04T11:35:53;99595.78;;;1.12;100.00
26719;BME280;14326;50.794;6.060;2022-12-04T11:38:24;99590.69;;;1.15;100.00
26719;BME280;14326;50.794;6.060;2022-12-04T11:41:31;99597.50;;;1.11;100.00
26719;BME280;14326;50.794;6.060;2022-12-04T11:43:58;99586.41;;;1.17;100.00
26719;BME280;14326;50.794;6.060;2022-12-04T11:46:27;99583.53;;;1.11;100.00
26719;BME280;14326;50.794;6.060;2022-12-04T11:48:54;99575.94;;;1.17;100.00
26719;BME280;14326;50.794;6.060;2022-12-04T11:51:24;99576.75;;;1.16;100.00
26719;BME280;14326;50.794;6.060;2022-12-04T11:53:58;99580.56;;;1.22;100.00
26719;BME280;14326;50.794;6.060;2022-12-04T11:56:31;99571.81;;;1.22;100.00
26719;BME280;14326;50.794;6.060;2022-12-04T11:59:10;99581.47;;;1.23;100.00
26719;BME280;14326;50.794;6.060;2022-12-04T12:01:46;99574.00;;;1.13;100.00
26719;BME280;14326;50.794;6.060;2022-12-04T12:07:33;99580.41;;;1.19;100.00
26719;BME280;14326;50.794;6.060;2022-12-04T12:10:07;99585.56;;;1.18;100.00
26719;BME280;14326;50.794;6.060;2022-12-04T12:12:47;99585.72;;;1.21;100.00
26719;BME280;14326;50.794;6.060;2022-12-04T12:15:23;99589.97;;;1.19;100.00
26719;BME280;14326;50.794;6.060;2022-12-04T12:18:02;99590.41;;;1.09;100.00
26719;BME280;14326;50.794;6.060;2022-12-04T12:20:35;99589.13;;;1.01;100.00
26719;BME280;14326;50.794;6.060;2022-12-04T12:23:24;99590.66;;;0.96;100.00
26719;BME280;14326;50.794;6.060;2022-12-04T12:25:59;99578.09;;;0.89;100.00
26719;BME280;14326;50.794;6.060;2022-12-04T12:28:43;99573.84;;;0.91;100.00
26719;BME280;14326;50.794;6.060;2022-12-04T12:31:25;99579.16;;;0.92;100.00
26719;BME280;14326;50.794;6.060;2022-12-04T12:33:57;99573.91;;;0.92;100.00
26719;BME280;14326;50.794;6.060;2022-12-04T12:36:28;99576.06;;;1.01;100.00
26719;BME280;14326;50.794;6.060;2022-12-04T12:39:01;99580.63;;;1.05;100.00
26719;BME280;14326;50.794;6.060;2022-12-04T12:41:33;99569.03;;;1.00;100.00
26719;BME280;14326;50.794;6.060;2022-12-04T12:44:08;99569.38;;;1.07;100.00
26719;BME280;14326;50.794;6.060;2022-12-04T12:46:41;99572.00;;;1.07;100.00
26719;BME280;14326;50.794;6.060;2022-12-04T12:49:18;99569.53;;;1.10;100.00
26719;BME280;14326;50.794;6.060;2022-12-04T12:51:50;99577.94;;;1.03;100.00
26719;BME280;14326;50.794;6.060;2022-12-04T12:54:39;99568.19;;;1.01;100.00
26719;BME280;14326;50.794;6.060;2022-12-04T12:57:12;99570.78;;;0.99;100.00
26719;BME280;14326;50.794;6.060;2022-12-04T12:59:45;99565.16;;;0.92;100.00
26719;BME280;14326;50.794;6.060;2022-12-04T13:02:19;99569.72;;;0.96;100.00
26719;BME280;14326;50.794;6.060;2022-12-04T13:04:50;99568.69;;;0.92;100.00
26719;BME280;14326;50.794;6.060;2022-12-04T13:07:20;99559.41;;;0.99;100.00
26719;BME280;14326;50.794;6.060;2022-12-04T13:09:52;99551.75;;;1.03;100.00
26719;BME280;14326;50.794;6.060;2022-12-04T13:12:22;99546.34;;;1.00;100.00
26719;BME280;14326;50.794;6.060;2022-12-04T13:14:51;99550.13;;;1.07;100.00
26719;BME280;14326;50.794;6.060;2022-12-04T13:17:22;99545.88;;;1.09;100.00
26719;BME280;14326;50.794;6.060;2022-12-04T13:19:55;99536.31;;;1.09;100.00
26719;BME280;14326;50.794;6.060;2022-12-04T13:22:40;99532.97;;;1.13;100.00
26719;BME280;14326;50.794;6.060;2022-12-04T13:25:35;99527.06;;;1.17;100.00
26719;BME280;14326;50.794;6.060;2022-12-04T13:28:25;99524.56;;;1.20;100.00
26719;BME280;14326;50.794;6.060;2022-12-04T13:31:13;99531.34;;;1.15;100.00
26719;BME280;14326;50.794;6.060;2022-12-04T13:37:08;99525.19;;;1.15;100.00
26719;BME280;14326;50.794;6.060;2022-12-04T13:42:52;99519.34;;;1.20;100.00
26719;BME280;14326;50.794;6.060;2022-12-04T13:45:25;99514.53;;;1.30;100.00
26719;BME280;14326;50.794;6.060;2022-12-04T13:47:57;99508.84;;;1.20;100.00